Airfield :
LOGIN :

Register | Disclaimer

   EN    FR    IT 

 










Legend :    VFR   Marginal VFR   IFR   Intensive IFR   Very Intensive IFR
Visi :
Ceiling :
>= 8 km
>= 3000ft
5 to 8 km
1000 to 3000 ft
1500m to 5 km
500 to 1000 ft
800 to 1500m
200 to 500 ft
< 800m
< 200 ft
Symbols :   Thunderstorms  Fog  Heavy snow  Heavy precipitations  Wind > 20 kt
SIGMETs :     Misc.  Thunderstorms  Icing  Turbulence  Mountain Waves  Volcanic Ashes






- Airport Elevation : 512 ft
- IATA code : URO


LFOP - Rouen Vallée de Seine

CURRENT METAR :
  • 101230Z AUTO 18015KT 9999 BKN029 BKN110 OVC170 07/03 Q1021

EXPIRED METARs :
  • 101200Z AUTO 19016KT 9999 BKN029 OVC170 07/03 Q1022
  • 101130Z AUTO 18011KT CAVOK 06/03 Q1023
  • 101100Z AUTO 19011KT CAVOK 05/03 Q1024
  • 101030Z AUTO 18010KT CAVOK 04/02 Q1024
  • 101000Z AUTO 17009KT CAVOK 03/02 Q1024

TAF TAF LFOP
Valid from the 09 at 18:00 until the 10 at 18:00 UTC


091700Z 0918/1018 32015KT 9999 SCT040
BECMG 0920/0922 VRB03KT
BECMG 1005/1008 19012KT
BECMG 1013/1016 19017G27KT BKN011 OVC030
ATIS : +33 2 35 80 80 34
Met : +33 2 32 86 52 80



MET'MAP, your aeronautical weather chart ! - Copyright ORBIFLY December 2007 - Disclaimer

ORBIFLY MET'MAP TEAM :

Programming & Development : Alexandra Zaïnal
Concept & original design : Baudouin d'Aumeries
Assistance for programming : Marc-Olivier Méhu
Technical & hardware support : Manuel Goepfert

Contact : metmap@orbifly.com




SOURCES & CREDITS :

   NOAA